sensor_id;sensor_type;location;lat;lon;timestamp;P1;durP1;ratioP1;P2;durP2;ratioP2
59476;SDS011;45713;49.766;6.592;2022-09-09T00:01:49;4.72;;;2.10;;
59476;SDS011;45713;49.766;6.592;2022-09-09T00:07:05;4.15;;;2.38;;
59476;SDS011;45713;49.766;6.592;2022-09-09T00:09:31;6.13;;;2.70;;
59476;SDS011;45713;49.766;6.592;2022-09-09T00:12:04;6.22;;;2.33;;
59476;SDS011;45713;49.766;6.592;2022-09-09T00:14:39;9.50;;;2.45;;
59476;SDS011;45713;49.766;6.592;2022-09-09T00:17:09;4.70;;;2.20;;
59476;SDS011;45713;49.766;6.592;2022-09-09T00:20:12;5.53;;;2.10;;
59476;SDS011;45713;49.766;6.592;2022-09-09T00:22:30;4.85;;;1.92;;
59476;SDS011;45713;49.766;6.592;2022-09-09T00:25:00;5.13;;;2.20;;
59476;SDS011;45713;49.766;6.592;2022-09-09T00:30:12;7.55;;;2.80;;
59476;SDS011;45713;49.766;6.592;2022-09-09T00:32:39;4.80;;;2.55;;
59476;SDS011;45713;49.766;6.592;2022-09-09T00:37:43;5.38;;;2.05;;
59476;SDS011;45713;49.766;6.592;2022-09-09T00:40:18;5.47;;;2.38;;
59476;SDS011;45713;49.766;6.592;2022-09-09T00:42:47;5.10;;;2.40;;
59476;SDS011;45713;49.766;6.592;2022-09-09T00:47:44;4.53;;;2.58;;
59476;SDS011;45713;49.766;6.592;2022-09-09T00:50:22;6.13;;;2.78;;
59476;SDS011;45713;49.766;6.592;2022-09-09T00:58:08;4.93;;;2.38;;
59476;SDS011;45713;49.766;6.592;2022-09-09T01:07:55;4.97;;;2.17;;
59476;SDS011;45713;49.766;6.592;2022-09-09T01:10:56;4.22;;;1.92;;
59476;SDS011;45713;49.766;6.592;2022-09-09T01:13:26;5.47;;;2.10;;
59476;SDS011;45713;49.766;6.592;2022-09-09T01:15:53;5.25;;;2.10;;
59476;SDS011;45713;49.766;6.592;2022-09-09T01:18:20;4.43;;;1.92;;
59476;SDS011;45713;49.766;6.592;2022-09-09T01:28:36;4.90;;;2.13;;
59476;SDS011;45713;49.766;6.592;2022-09-09T01:31:04;3.55;;;2.00;;
59476;SDS011;45713;49.766;6.592;2022-09-09T01:33:31;3.95;;;2.03;;
59476;SDS011;45713;49.766;6.592;2022-09-09T01:36:03;3.63;;;2.10;;
59476;SDS011;45713;49.766;6.592;2022-09-09T01:38:32;4.97;;;2.00;;
59476;SDS011;45713;49.766;6.592;2022-09-09T01:40:59;5.25;;;2.17;;
59476;SDS011;45713;49.766;6.592;2022-09-09T01:43:25;5.93;;;2.60;;
59476;SDS011;45713;49.766;6.592;2022-09-09T01:45:53;4.25;;;2.08;;
59476;SDS011;45713;49.766;6.592;2022-09-09T01:48:19;3.25;;;2.10;;
59476;SDS011;45713;49.766;6.592;2022-09-09T01:50:47;6.97;;;2.05;;
59476;SDS011;45713;49.766;6.592;2022-09-09T01:53:12;5.32;;;2.10;;
59476;SDS011;45713;49.766;6.592;2022-09-09T01:55:41;4.72;;;2.33;;
59476;SDS011;45713;49.766;6.592;2022-09-09T01:58:28;5.45;;;2.28;;
59476;SDS011;45713;49.766;6.592;2022-09-09T02:01:02;3.92;;;2.65;;
59476;SDS011;45713;49.766;6.592;2022-09-09T02:03:31;5.78;;;2.65;;
59476;SDS011;45713;49.766;6.592;2022-09-09T02:08:58;3.03;;;1.80;;
59476;SDS011;45713;49.766;6.592;2022-09-09T02:11:26;4.95;;;2.10;;
59476;SDS011;45713;49.766;6.592;2022-09-09T02:13:54;6.75;;;2.22;;
59476;SDS011;45713;49.766;6.592;2022-09-09T02:18:54;3.70;;;2.10;;
59476;SDS011;45713;49.766;6.592;2022-09-09T02:21:21;4.32;;;2.25;;
59476;SDS011;45713;49.766;6.592;2022-09-09T02:23:48;6.28;;;2.40;;
59476;SDS011;45713;49.766;6.592;2022-09-09T02:26:17;5.07;;;2.22;;
59476;SDS011;45713;49.766;6.592;2022-09-09T02:28:46;6.10;;;2.53;;
59476;SDS011;45713;49.766;6.592;2022-09-09T02:31:15;4.60;;;2.10;;
59476;SDS011;45713;49.766;6.592;2022-09-09T02:33:45;3.25;;;1.90;;
59476;SDS011;45713;49.766;6.592;2022-09-09T02:36:12;3.40;;;2.00;;
59476;SDS011;45713;49.766;6.592;2022-09-09T02:38:46;5.50;;;2.22;;
59476;SDS011;45713;49.766;6.592;2022-09-09T02:41:20;4.35;;;2.05;;
59476;SDS011;45713;49.766;6.592;2022-09-09T02:43:48;8.05;;;2.20;;
59476;SDS011;45713;49.766;6.592;2022-09-09T02:48:58;6.97;;;2.70;;
59476;SDS011;45713;49.766;6.592;2022-09-09T02:51:47;4.30;;;2.10;;
59476;SDS011;45713;49.766;6.592;2022-09-09T02:56:47;6.93;;;2.33;;
59476;SDS011;45713;49.766;6.592;2022-09-09T02:59:15;4.63;;;1.90;;
59476;SDS011;45713;49.766;6.592;2022-09-09T03:01:43;6.00;;;2.10;;
59476;SDS011;45713;49.766;6.592;2022-09-09T03:04:10;4.68;;;2.30;;
59476;SDS011;45713;49.766;6.592;2022-09-09T03:06:35;7.45;;;2.70;;
59476;SDS011;45713;49.766;6.592;2022-09-09T03:09:02;4.85;;;2.40;;
59476;SDS011;45713;49.766;6.592;2022-09-09T03:11:28;5.22;;;2.20;;
59476;SDS011;45713;49.766;6.592;2022-09-09T03:13:54;3.95;;;2.05;;
59476;SDS011;45713;49.766;6.592;2022-09-09T03:16:21;3.88;;;2.10;;
59476;SDS011;45713;49.766;6.592;2022-09-09T03:18:47;6.30;;;2.50;;
59476;SDS011;45713;49.766;6.592;2022-09-09T03:21:14;4.65;;;2.80;;
59476;SDS011;45713;49.766;6.592;2022-09-09T03:23:40;7.03;;;2.45;;
59476;SDS011;45713;49.766;6.592;2022-09-09T03:26:06;6.60;;;2.40;;
59476;SDS011;45713;49.766;6.592;2022-09-09T03:28:32;4.15;;;2.60;;
59476;SDS011;45713;49.766;6.592;2022-09-09T03:30:59;5.40;;;2.50;;
59476;SDS011;45713;49.766;6.592;2022-09-09T03:33:25;5.22;;;2.50;;
59476;SDS011;45713;49.766;6.592;2022-09-09T03:35:51;6.43;;;2.50;;
59476;SDS011;45713;49.766;6.592;2022-09-09T03:38:18;3.53;;;2.70;;
59476;SDS011;45713;49.766;6.592;2022-09-09T03:40:50;8.25;;;3.00;;
59476;SDS011;45713;49.766;6.592;2022-09-09T03:43:18;5.65;;;2.50;;
59476;SDS011;45713;49.766;6.592;2022-09-09T03:45:46;6.35;;;2.50;;
59476;SDS011;45713;49.766;6.592;2022-09-09T03:48:13;6.82;;;2.38;;
59476;SDS011;45713;49.766;6.592;2022-09-09T03:50:43;5.97;;;2.50;;
59476;SDS011;45713;49.766;6.592;2022-09-09T03:53:09;7.28;;;2.30;;
59476;SDS011;45713;49.766;6.592;2022-09-09T03:55:35;6.75;;;2.40;;
59476;SDS011;45713;49.766;6.592;2022-09-09T03:58:01;5.53;;;2.38;;
59476;SDS011;45713;49.766;6.592;2022-09-09T04:00:27;3.90;;;2.28;;
59476;SDS011;45713;49.766;6.592;2022-09-09T04:02:54;5.78;;;2.35;;
59476;SDS011;45713;49.766;6.592;2022-09-09T04:05:20;5.05;;;2.05;;
59476;SDS011;45713;49.766;6.592;2022-09-09T04:07:46;5.25;;;2.30;;
59476;SDS011;45713;49.766;6.592;2022-09-09T04:10:12;9.23;;;2.65;;
59476;SDS011;45713;49.766;6.592;2022-09-09T04:12:38;5.18;;;2.92;;
59476;SDS011;45713;49.766;6.592;2022-09-09T04:15:04;8.32;;;2.85;;
59476;SDS011;45713;49.766;6.592;2022-09-09T04:17:30;8.77;;;2.40;;
59476;SDS011;45713;49.766;6.592;2022-09-09T04:19:57;7.82;;;2.53;;
59476;SDS011;45713;49.766;6.592;2022-09-09T04:22:23;6.20;;;2.30;;
59476;SDS011;45713;49.766;6.592;2022-09-09T04:24:49;4.38;;;2.85;;
59476;SDS011;45713;49.766;6.592;2022-09-09T04:27:15;7.72;;;2.65;;
59476;SDS011;45713;49.766;6.592;2022-09-09T04:29:41;7.53;;;3.30;;
59476;SDS011;45713;49.766;6.592;2022-09-09T04:32:07;6.05;;;2.55;;
59476;SDS011;45713;49.766;6.592;2022-09-09T04:34:33;5.57;;;2.50;;
59476;SDS011;45713;49.766;6.592;2022-09-09T04:36:59;6.63;;;2.40;;
59476;SDS011;45713;49.766;6.592;2022-09-09T04:39:26;4.20;;;2.22;;
59476;SDS011;45713;49.766;6.592;2022-09-09T04:41:52;7.50;;;2.55;;
59476;SDS011;45713;49.766;6.592;2022-09-09T04:44:18;5.57;;;2.53;;
59476;SDS011;45713;49.766;6.592;2022-09-09T04:46:44;5.45;;;2.33;;
59476;SDS011;45713;49.766;6.592;2022-09-09T04:49:10;7.93;;;2.20;;
59476;SDS011;45713;49.766;6.592;2022-09-09T04:51:36;4.50;;;2.40;;
59476;SDS011;45713;49.766;6.592;2022-09-09T04:54:02;7.10;;;2.38;;
59476;SDS011;45713;49.766;6.592;2022-09-09T04:56:28;5.00;;;2.38;;
59476;SDS011;45713;49.766;6.592;2022-09-09T04:58:54;6.72;;;2.88;;
59476;SDS011;45713;49.766;6.592;2022-09-09T05:01:20;4.22;;;2.20;;
59476;SDS011;45713;49.766;6.592;2022-09-09T05:03:47;7.15;;;2.78;;
59476;SDS011;45713;49.766;6.592;2022-09-09T05:06:14;8.43;;;3.70;;
59476;SDS011;45713;49.766;6.592;2022-09-09T05:08:41;6.03;;;2.30;;
59476;SDS011;45713;49.766;6.592;2022-09-09T05:11:14;6.68;;;3.00;;
59476;SDS011;45713;49.766;6.592;2022-09-09T05:13:41;6.20;;;2.60;;
59476;SDS011;45713;49.766;6.592;2022-09-09T05:16:07;6.57;;;2.95;;
59476;SDS011;45713;49.766;6.592;2022-09-09T05:18:36;6.15;;;2.60;;
59476;SDS011;45713;49.766;6.592;2022-09-09T05:21:02;8.98;;;3.20;;
59476;SDS011;45713;49.766;6.592;2022-09-09T05:23:28;7.07;;;2.22;;
59476;SDS011;45713;49.766;6.592;2022-09-09T05:25:57;5.22;;;3.08;;
59476;SDS011;45713;49.766;6.592;2022-09-09T05:28:27;7.35;;;2.50;;
59476;SDS011;45713;49.766;6.592;2022-09-09T05:30:59;7.88;;;2.50;;
59476;SDS011;45713;49.766;6.592;2022-09-09T05:33:26;5.38;;;2.60;;
59476;SDS011;45713;49.766;6.592;2022-09-09T05:35:59;5.82;;;2.38;;
59476;SDS011;45713;49.766;6.592;2022-09-09T05:38:27;5.57;;;2.75;;
59476;SDS011;45713;49.766;6.592;2022-09-09T05:40:53;5.82;;;2.17;;
59476;SDS011;45713;49.766;6.592;2022-09-09T05:43:21;6.40;;;2.40;;
59476;SDS011;45713;49.766;6.592;2022-09-09T05:45:47;5.25;;;2.30;;
59476;SDS011;45713;49.766;6.592;2022-09-09T05:48:14;4.65;;;2.30;;
59476;SDS011;45713;49.766;6.592;2022-09-09T05:50:41;4.57;;;2.38;;
59476;SDS011;45713;49.766;6.592;2022-09-09T05:53:07;5.43;;;2.30;;
59476;SDS011;45713;49.766;6.592;2022-09-09T05:55:33;4.40;;;2.30;;
59476;SDS011;45713;49.766;6.592;2022-09-09T05:57:59;5.43;;;2.65;;
59476;SDS011;45713;49.766;6.592;2022-09-09T06:00:26;6.50;;;2.88;;
59476;SDS011;45713;49.766;6.592;2022-09-09T06:02:52;7.53;;;2.67;;
59476;SDS011;45713;49.766;6.592;2022-09-09T06:05:18;8.23;;;2.40;;
59476;SDS011;45713;49.766;6.592;2022-09-09T06:07:45;9.15;;;2.90;;
59476;SDS011;45713;49.766;6.592;2022-09-09T06:10:11;4.60;;;2.40;;
59476;SDS011;45713;49.766;6.592;2022-09-09T06:12:40;5.60;;;2.60;;
59476;SDS011;45713;49.766;6.592;2022-09-09T06:15:06;8.25;;;3.17;;
59476;SDS011;45713;49.766;6.592;2022-09-09T06:17:34;6.40;;;2.60;;
59476;SDS011;45713;49.766;6.592;2022-09-09T06:20:00;6.00;;;2.42;;
59476;SDS011;45713;49.766;6.592;2022-09-09T06:22:26;6.90;;;3.13;;
59476;SDS011;45713;49.766;6.592;2022-09-09T06:24:52;6.35;;;2.60;;
59476;SDS011;45713;49.766;6.592;2022-09-09T06:27:18;6.55;;;2.70;;
59476;SDS011;45713;49.766;6.592;2022-09-09T06:29:44;7.18;;;2.55;;
59476;SDS011;45713;49.766;6.592;2022-09-09T06:32:10;6.50;;;2.40;;
59476;SDS011;45713;49.766;6.592;2022-09-09T06:34:36;7.50;;;2.97;;
59476;SDS011;45713;49.766;6.592;2022-09-09T06:37:02;5.35;;;2.30;;
59476;SDS011;45713;49.766;6.592;2022-09-09T06:39:29;5.95;;;2.60;;
59476;SDS011;45713;49.766;6.592;2022-09-09T06:41:55;9.20;;;2.75;;
59476;SDS011;45713;49.766;6.592;2022-09-09T06:44:23;10.48;;;2.40;;
59476;SDS011;45713;49.766;6.592;2022-09-09T06:46:51;8.32;;;2.65;;
59476;SDS011;45713;49.766;6.592;2022-09-09T06:49:17;6.65;;;2.40;;
59476;SDS011;45713;49.766;6.592;2022-09-09T06:51:43;6.03;;;2.20;;
59476;SDS011;45713;49.766;6.592;2022-09-09T06:54:10;10.38;;;2.60;;
59476;SDS011;45713;49.766;6.592;2022-09-09T06:56:40;6.65;;;2.42;;
59476;SDS011;45713;49.766;6.592;2022-09-09T06:59:08;8.70;;;2.70;;
59476;SDS011;45713;49.766;6.592;2022-09-09T07:01:37;7.68;;;2.40;;
59476;SDS011;45713;49.766;6.592;2022-09-09T07:04:05;5.57;;;2.53;;
59476;SDS011;45713;49.766;6.592;2022-09-09T07:06:37;3.80;;;2.22;;
59476;SDS011;45713;49.766;6.592;2022-09-09T07:09:04;4.38;;;2.28;;
59476;SDS011;45713;49.766;6.592;2022-09-09T07:11:31;4.78;;;2.63;;
59476;SDS011;45713;49.766;6.592;2022-09-09T07:13:58;6.07;;;2.42;;
59476;SDS011;45713;49.766;6.592;2022-09-09T07:16:25;8.07;;;2.60;;
59476;SDS011;45713;49.766;6.592;2022-09-09T07:18:52;7.18;;;2.30;;
59476;SDS011;45713;49.766;6.592;2022-09-09T07:21:23;6.10;;;2.28;;
59476;SDS011;45713;49.766;6.592;2022-09-09T07:23:49;7.63;;;2.63;;
59476;SDS011;45713;49.766;6.592;2022-09-09T07:26:17;7.43;;;2.50;;
59476;SDS011;45713;49.766;6.592;2022-09-09T07:28:46;10.40;;;2.58;;
59476;SDS011;45713;49.766;6.592;2022-09-09T07:31:13;6.25;;;2.75;;
59476;SDS011;45713;49.766;6.592;2022-09-09T07:33:40;5.45;;;2.17;;
59476;SDS011;45713;49.766;6.592;2022-09-09T07:36:07;7.45;;;2.90;;
59476;SDS011;45713;49.766;6.592;2022-09-09T07:38:37;6.22;;;2.50;;
59476;SDS011;45713;49.766;6.592;2022-09-09T07:41:07;5.35;;;2.10;;
59476;SDS011;45713;49.766;6.592;2022-09-09T07:43:37;5.68;;;2.30;;
59476;SDS011;45713;49.766;6.592;2022-09-09T07:46:03;7.97;;;2.90;;
59476;SDS011;45713;49.766;6.592;2022-09-09T07:48:30;9.48;;;2.85;;
59476;SDS011;45713;49.766;6.592;2022-09-09T07:51:30;5.38;;;2.33;;
59476;SDS011;45713;49.766;6.592;2022-09-09T07:53:51;6.45;;;2.65;;
59476;SDS011;45713;49.766;6.592;2022-09-09T07:56:17;5.47;;;2.30;;
59476;SDS011;45713;49.766;6.592;2022-09-09T07:58:47;4.05;;;2.22;;
59476;SDS011;45713;49.766;6.592;2022-09-09T08:01:20;6.82;;;2.45;;
59476;SDS011;45713;49.766;6.592;2022-09-09T08:03:51;3.83;;;2.33;;
59476;SDS011;45713;49.766;6.592;2022-09-09T08:06:17;5.40;;;2.20;;
59476;SDS011;45713;49.766;6.592;2022-09-09T08:08:43;4.85;;;2.33;;
59476;SDS011;45713;49.766;6.592;2022-09-09T08:11:11;6.75;;;2.78;;
59476;SDS011;45713;49.766;6.592;2022-09-09T08:13:38;6.45;;;2.42;;
59476;SDS011;45713;49.766;6.592;2022-09-09T08:16:09;5.22;;;2.30;;
59476;SDS011;45713;49.766;6.592;2022-09-09T08:18:36;8.60;;;2.60;;
59476;SDS011;45713;49.766;6.592;2022-09-09T08:21:10;8.48;;;2.60;;
59476;SDS011;45713;49.766;6.592;2022-09-09T08:23:42;8.95;;;3.15;;
59476;SDS011;45713;49.766;6.592;2022-09-09T08:26:11;7.13;;;2.22;;
59476;SDS011;45713;49.766;6.592;2022-09-09T08:28:37;6.55;;;2.80;;
59476;SDS011;45713;49.766;6.592;2022-09-09T08:31:08;9.50;;;2.55;;
59476;SDS011;45713;49.766;6.592;2022-09-09T08:33:35;10.35;;;2.78;;
59476;SDS011;45713;49.766;6.592;2022-09-09T08:36:03;7.95;;;3.22;;
59476;SDS011;45713;49.766;6.592;2022-09-09T08:38:29;7.00;;;2.95;;
59476;SDS011;45713;49.766;6.592;2022-09-09T08:40:57;4.32;;;2.42;;
59476;SDS011;45713;49.766;6.592;2022-09-09T08:43:26;8.25;;;2.90;;
59476;SDS011;45713;49.766;6.592;2022-09-09T08:48:44;7.18;;;2.47;;
59476;SDS011;45713;49.766;6.592;2022-09-09T08:51:08;9.90;;;3.08;;
59476;SDS011;45713;49.766;6.592;2022-09-09T08:53:42;4.15;;;2.70;;
59476;SDS011;45713;49.766;6.592;2022-09-09T08:56:10;5.13;;;2.42;;
59476;SDS011;45713;49.766;6.592;2022-09-09T08:58:40;6.30;;;2.47;;
59476;SDS011;45713;49.766;6.592;2022-09-09T09:11:38;8.05;;;2.50;;
59476;SDS011;45713;49.766;6.592;2022-09-09T09:16:35;7.00;;;2.70;;
59476;SDS011;45713;49.766;6.592;2022-09-09T09:19:04;5.97;;;2.63;;
59476;SDS011;45713;49.766;6.592;2022-09-09T09:21:36;5.80;;;2.38;;
59476;SDS011;45713;49.766;6.592;2022-09-09T09:24:05;9.95;;;2.92;;
59476;SDS011;45713;49.766;6.592;2022-09-09T09:29:01;6.57;;;2.42;;
59476;SDS011;45713;49.766;6.592;2022-09-09T09:33:56;5.80;;;2.63;;
59476;SDS011;45713;49.766;6.592;2022-09-09T09:36:39;8.98;;;2.35;;
59476;SDS011;45713;49.766;6.592;2022-09-09T09:39:06;9.10;;;2.70;;
59476;SDS011;45713;49.766;6.592;2022-09-09T09:41:40;6.82;;;2.60;;
59476;SDS011;45713;49.766;6.592;2022-09-09T09:44:27;4.90;;;1.95;;
59476;SDS011;45713;49.766;6.592;2022-09-09T09:46:53;3.92;;;1.98;;
59476;SDS011;45713;49.766;6.592;2022-09-09T09:49:30;3.65;;;1.67;;
59476;SDS011;45713;49.766;6.592;2022-09-09T09:52:01;4.13;;;2.10;;
59476;SDS011;45713;49.766;6.592;2022-09-09T09:54:28;6.70;;;1.98;;
59476;SDS011;45713;49.766;6.592;2022-09-09T09:56:55;3.25;;;1.95;;
59476;SDS011;45713;49.766;6.592;2022-09-09T10:01:53;2.38;;;1.60;;
59476;SDS011;45713;49.766;6.592;2022-09-09T10:04:20;2.35;;;1.70;;
59476;SDS011;45713;49.766;6.592;2022-09-09T10:06:49;3.30;;;1.58;;
59476;SDS011;45713;49.766;6.592;2022-09-09T10:19:29;3.08;;;1.67;;
59476;SDS011;45713;49.766;6.592;2022-09-09T10:21:58;6.75;;;1.90;;
59476;SDS011;45713;49.766;6.592;2022-09-09T10:24:44;4.70;;;1.80;;
59476;SDS011;45713;49.766;6.592;2022-09-09T10:27:19;4.03;;;1.83;;
59476;SDS011;45713;49.766;6.592;2022-09-09T10:29:57;4.07;;;2.03;;
59476;SDS011;45713;49.766;6.592;2022-09-09T10:40:24;3.92;;;1.60;;
59476;SDS011;45713;49.766;6.592;2022-09-09T10:42:53;5.10;;;2.05;;
59476;SDS011;45713;49.766;6.592;2022-09-09T10:45:25;3.22;;;1.63;;
59476;SDS011;45713;49.766;6.592;2022-09-09T10:55:56;3.10;;;1.60;;
59476;SDS011;45713;49.766;6.592;2022-09-09T10:58:30;2.67;;;1.70;;
59476;SDS011;45713;49.766;6.592;2022-09-09T11:01:00;4.35;;;2.10;;
59476;SDS011;45713;49.766;6.592;2022-09-09T11:03:29;3.85;;;1.88;;
59476;SDS011;45713;49.766;6.592;2022-09-09T11:06:06;6.20;;;1.75;;
59476;SDS011;45713;49.766;6.592;2022-09-09T11:08:34;5.15;;;1.65;;
59476;SDS011;45713;49.766;6.592;2022-09-09T11:11:10;2.67;;;1.70;;
59476;SDS011;45713;49.766;6.592;2022-09-09T11:16:14;3.28;;;1.55;;
59476;SDS011;45713;49.766;6.592;2022-09-09T11:18:41;3.65;;;1.60;;
59476;SDS011;45713;49.766;6.592;2022-09-09T11:21:12;5.82;;;1.80;;
59476;SDS011;45713;49.766;6.592;2022-09-09T11:23:43;3.05;;;1.83;;
59476;SDS011;45713;49.766;6.592;2022-09-09T11:36:53;4.13;;;1.70;;
59476;SDS011;45713;49.766;6.592;2022-09-09T11:44:38;1.55;;;1.38;;
59476;SDS011;45713;49.766;6.592;2022-09-09T11:47:15;3.03;;;1.70;;
59476;SDS011;45713;49.766;6.592;2022-09-09T11:49:41;4.07;;;1.80;;
59476;SDS011;45713;49.766;6.592;2022-09-09T11:52:12;3.38;;;1.77;;
59476;SDS011;45713;49.766;6.592;2022-09-09T11:54:46;4.05;;;1.83;;
59476;SDS011;45713;49.766;6.592;2022-09-09T11:57:24;3.22;;;1.55;;
59476;SDS011;45713;49.766;6.592;2022-09-09T11:59:51;5.68;;;2.00;;
59476;SDS011;45713;49.766;6.592;2022-09-09T12:12:06;2.50;;;1.50;;
59476;SDS011;45713;49.766;6.592;2022-09-09T12:19:42;2.95;;;1.80;;
59476;SDS011;45713;49.766;6.592;2022-09-09T12:22:15;2.78;;;1.40;;
59476;SDS011;45713;49.766;6.592;2022-09-09T12:32:40;2.92;;;1.67;;
59476;SDS011;45713;49.766;6.592;2022-09-09T12:37:39;2.50;;;1.60;;
59476;SDS011;45713;49.766;6.592;2022-09-09T12:40:20;4.38;;;1.73;;
59476;SDS011;45713;49.766;6.592;2022-09-09T12:42:47;3.88;;;1.65;;
59476;SDS011;45713;49.766;6.592;2022-09-09T12:50:27;3.30;;;1.77;;
59476;SDS011;45713;49.766;6.592;2022-09-09T12:52:54;3.75;;;1.88;;
59476;SDS011;45713;49.766;6.592;2022-09-09T12:55:23;3.58;;;1.95;;
59476;SDS011;45713;49.766;6.592;2022-09-09T12:57:50;3.80;;;1.90;;
59476;SDS011;45713;49.766;6.592;2022-09-09T13:02:55;4.60;;;1.67;;
59476;SDS011;45713;49.766;6.592;2022-09-09T13:07:48;1.92;;;1.50;;
59476;SDS011;45713;49.766;6.592;2022-09-09T13:10:14;2.60;;;1.30;;
59476;SDS011;45713;49.766;6.592;2022-09-09T13:12:41;2.90;;;1.50;;
59476;SDS011;45713;49.766;6.592;2022-09-09T13:15:14;2.28;;;1.60;;
59476;SDS011;45713;49.766;6.592;2022-09-09T13:17:42;2.03;;;1.45;;
59476;SDS011;45713;49.766;6.592;2022-09-09T13:20:16;4.22;;;1.75;;
59476;SDS011;45713;49.766;6.592;2022-09-09T13:22:42;3.28;;;1.50;;
59476;SDS011;45713;49.766;6.592;2022-09-09T13:27:36;2.67;;;1.98;;
59476;SDS011;45713;49.766;6.592;2022-09-09T13:35:27;2.50;;;1.30;;
59476;SDS011;45713;49.766;6.592;2022-09-09T13:37:53;4.93;;;1.70;;
59476;SDS011;45713;49.766;6.592;2022-09-09T13:40:20;3.80;;;1.60;;
59476;SDS011;45713;49.766;6.592;2022-09-09T13:42:46;5.38;;;1.70;;
59476;SDS011;45713;49.766;6.592;2022-09-09T13:45:31;2.80;;;1.77;;
59476;SDS011;45713;49.766;6.592;2022-09-09T13:47:59;7.05;;;1.85;;
59476;SDS011;45713;49.766;6.592;2022-09-09T13:50:33;3.72;;;1.70;;
59476;SDS011;45713;49.766;6.592;2022-09-09T13:52:59;1.75;;;1.40;;
59476;SDS011;45713;49.766;6.592;2022-09-09T13:55:29;3.40;;;1.70;;
59476;SDS011;45713;49.766;6.592;2022-09-09T14:00:21;6.22;;;2.42;;
59476;SDS011;45713;49.766;6.592;2022-09-09T14:02:48;8.73;;;2.50;;
59476;SDS011;45713;49.766;6.592;2022-09-09T14:05:14;4.20;;;1.60;;
59476;SDS011;45713;49.766;6.592;2022-09-09T14:07:41;2.85;;;1.13;;
59476;SDS011;45713;49.766;6.592;2022-09-09T14:10:07;4.30;;;1.60;;
59476;SDS011;45713;49.766;6.592;2022-09-09T14:12:33;5.55;;;1.95;;
59476;SDS011;45713;49.766;6.592;2022-09-09T14:15:00;3.22;;;1.48;;
59476;SDS011;45713;49.766;6.592;2022-09-09T14:17:26;1.77;;;1.52;;
59476;SDS011;45713;49.766;6.592;2022-09-09T14:19:55;2.40;;;1.63;;
59476;SDS011;45713;49.766;6.592;2022-09-09T14:22:21;2.20;;;1.27;;
59476;SDS011;45713;49.766;6.592;2022-09-09T14:24:47;2.40;;;1.42;;
59476;SDS011;45713;49.766;6.592;2022-09-09T14:27:14;2.20;;;1.52;;
59476;SDS011;45713;49.766;6.592;2022-09-09T14:29:40;3.78;;;1.60;;
59476;SDS011;45713;49.766;6.592;2022-09-09T14:32:06;1.58;;;1.38;;
59476;SDS011;45713;49.766;6.592;2022-09-09T14:34:32;2.35;;;1.55;;
59476;SDS011;45713;49.766;6.592;2022-09-09T14:36:58;5.47;;;3.28;;
59476;SDS011;45713;49.766;6.592;2022-09-09T14:39:24;2.90;;;1.30;;
59476;SDS011;45713;49.766;6.592;2022-09-09T14:41:50;3.28;;;1.42;;
59476;SDS011;45713;49.766;6.592;2022-09-09T14:44:16;1.63;;;1.40;;
59476;SDS011;45713;49.766;6.592;2022-09-09T14:46:43;1.50;;;1.40;;
59476;SDS011;45713;49.766;6.592;2022-09-09T14:49:09;1.60;;;1.40;;
59476;SDS011;45713;49.766;6.592;2022-09-09T14:51:38;2.00;;;1.35;;
59476;SDS011;45713;49.766;6.592;2022-09-09T14:54:04;1.98;;;1.40;;
59476;SDS011;45713;49.766;6.592;2022-09-09T14:56:31;2.55;;;1.70;;
59476;SDS011;45713;49.766;6.592;2022-09-09T14:58:59;2.47;;;1.60;;
59476;SDS011;45713;49.766;6.592;2022-09-09T15:01:26;4.22;;;1.60;;
59476;SDS011;45713;49.766;6.592;2022-09-09T15:03:53;3.63;;;1.67;;
59476;SDS011;45713;49.766;6.592;2022-09-09T15:06:20;4.93;;;1.60;;
59476;SDS011;45713;49.766;6.592;2022-09-09T15:08:46;2.58;;;1.60;;
59476;SDS011;45713;49.766;6.592;2022-09-09T15:11:13;2.58;;;1.55;;
59476;SDS011;45713;49.766;6.592;2022-09-09T15:13:40;4.35;;;1.77;;
59476;SDS011;45713;49.766;6.592;2022-09-09T15:18:35;3.45;;;1.75;;
59476;SDS011;45713;49.766;6.592;2022-09-09T15:21:05;4.53;;;1.88;;
59476;SDS011;45713;49.766;6.592;2022-09-09T15:23:31;3.22;;;1.80;;
59476;SDS011;45713;49.766;6.592;2022-09-09T15:25:57;2.42;;;1.67;;
59476;SDS011;45713;49.766;6.592;2022-09-09T15:28:23;4.63;;;1.95;;
59476;SDS011;45713;49.766;6.592;2022-09-09T15:30:50;2.33;;;1.90;;
59476;SDS011;45713;49.766;6.592;2022-09-09T15:33:17;3.05;;;1.90;;
59476;SDS011;45713;49.766;6.592;2022-09-09T15:35:43;2.95;;;1.83;;
59476;SDS011;45713;49.766;6.592;2022-09-09T15:38:09;3.40;;;2.00;;
59476;SDS011;45713;49.766;6.592;2022-09-09T15:40:37;3.55;;;2.10;;
59476;SDS011;45713;49.766;6.592;2022-09-09T15:43:04;4.00;;;2.20;;
59476;SDS011;45713;49.766;6.592;2022-09-09T15:45:31;4.30;;;2.38;;
59476;SDS011;45713;49.766;6.592;2022-09-09T15:47:58;9.48;;;2.85;;
59476;SDS011;45713;49.766;6.592;2022-09-09T15:50:24;7.45;;;2.45;;
59476;SDS011;45713;49.766;6.592;2022-09-09T15:52:51;3.40;;;2.30;;
59476;SDS011;45713;49.766;6.592;2022-09-09T15:55:18;7.43;;;2.35;;
59476;SDS011;45713;49.766;6.592;2022-09-09T15:57:50;5.40;;;2.47;;
59476;SDS011;45713;49.766;6.592;2022-09-09T16:00:17;4.15;;;2.20;;
59476;SDS011;45713;49.766;6.592;2022-09-09T16:02:43;3.65;;;2.55;;
59476;SDS011;45713;49.766;6.592;2022-09-09T16:05:09;5.10;;;2.00;;
59476;SDS011;45713;49.766;6.592;2022-09-09T16:07:35;5.97;;;2.05;;
59476;SDS011;45713;49.766;6.592;2022-09-09T16:10:02;1.70;;;1.60;;
59476;SDS011;45713;49.766;6.592;2022-09-09T16:12:28;2.30;;;1.83;;
59476;SDS011;45713;49.766;6.592;2022-09-09T16:14:54;5.05;;;2.00;;
59476;SDS011;45713;49.766;6.592;2022-09-09T16:17:20;3.95;;;2.10;;
59476;SDS011;45713;49.766;6.592;2022-09-09T16:19:46;5.30;;;2.08;;
59476;SDS011;45713;49.766;6.592;2022-09-09T16:22:12;4.85;;;2.22;;
59476;SDS011;45713;49.766;6.592;2022-09-09T16:24:40;5.20;;;2.30;;
59476;SDS011;45713;49.766;6.592;2022-09-09T16:27:06;3.97;;;1.73;;
59476;SDS011;45713;49.766;6.592;2022-09-09T16:29:32;4.80;;;3.13;;
59476;SDS011;45713;49.766;6.592;2022-09-09T16:31:58;3.28;;;2.00;;
59476;SDS011;45713;49.766;6.592;2022-09-09T16:34:25;4.45;;;2.15;;
59476;SDS011;45713;49.766;6.592;2022-09-09T16:36:51;4.60;;;2.20;;
59476;SDS011;45713;49.766;6.592;2022-09-09T16:39:18;4.57;;;2.08;;
59476;SDS011;45713;49.766;6.592;2022-09-09T16:41:44;2.92;;;1.70;;
59476;SDS011;45713;49.766;6.592;2022-09-09T16:44:11;4.07;;;2.10;;
59476;SDS011;45713;49.766;6.592;2022-09-09T16:46:41;4.63;;;2.10;;
59476;SDS011;45713;49.766;6.592;2022-09-09T16:49:08;5.60;;;2.00;;
59476;SDS011;45713;49.766;6.592;2022-09-09T16:51:38;4.97;;;2.00;;
59476;SDS011;45713;49.766;6.592;2022-09-09T16:54:06;4.25;;;2.05;;
59476;SDS011;45713;49.766;6.592;2022-09-09T16:56:33;3.97;;;2.00;;
59476;SDS011;45713;49.766;6.592;2022-09-09T16:59:02;3.45;;;1.92;;
59476;SDS011;45713;49.766;6.592;2022-09-09T17:01:29;2.53;;;2.17;;
59476;SDS011;45713;49.766;6.592;2022-09-09T17:03:57;2.85;;;1.70;;
59476;SDS011;45713;49.766;6.592;2022-09-09T17:06:23;3.10;;;1.92;;
59476;SDS011;45713;49.766;6.592;2022-09-09T17:08:57;4.45;;;2.05;;
59476;SDS011;45713;49.766;6.592;2022-09-09T17:11:24;3.47;;;1.90;;
59476;SDS011;45713;49.766;6.592;2022-09-09T17:13:51;4.43;;;2.10;;
59476;SDS011;45713;49.766;6.592;2022-09-09T17:16:18;3.35;;;2.10;;
59476;SDS011;45713;49.766;6.592;2022-09-09T17:18:48;4.30;;;2.10;;
59476;SDS011;45713;49.766;6.592;2022-09-09T17:21:15;3.58;;;2.00;;
59476;SDS011;45713;49.766;6.592;2022-09-09T17:23:42;2.75;;;1.90;;
59476;SDS011;45713;49.766;6.592;2022-09-09T17:26:09;3.50;;;2.10;;
59476;SDS011;45713;49.766;6.592;2022-09-09T17:28:39;4.03;;;2.35;;
59476;SDS011;45713;49.766;6.592;2022-09-09T17:31:06;4.75;;;2.30;;
59476;SDS011;45713;49.766;6.592;2022-09-09T17:33:33;5.78;;;2.70;;